Česky Dansk Deutsch English Español Suomi Français Magyar Italiano Nederlands norsk Polski Português svenska Türkçe

 

Het Weer

Kuopio (Finland)

15:20, 12 augustus 2016 (GMT)

NWNNE
WE
SWSSE
Home            
Kuopio Varkaus Viitasaari Joensuu Jyvaskyla Savonlinna Kajaani Mikkeli Ahtari Halli Suomussalmi Lappeenranta Utti Kauhava Oulu Kruunupyy Ilmajoki Seinajoki-Ilmajok Pudasjarvi Hailuoto Tampere / Pirkkala Vaasa Kuusamo

Om een weerknop op uw website of weblog te plaatsen, copieer onderstaande code en plak die in uw pagina. In het eerste vakje staat HTML-code, in het tweede vakje UBB-code.


Add to Google

Details

Wind speed:4 bf, 11 kn, 5.7 m/s, 12.7 miles/h, 20.4 km/h
Wind direction:S, 190° - WNW, 300°
Visibility:Greater than 10000 m, 10 km, 32800 ft, 6.2 miles
Clouds:Aufgelockert bewölkt at 2800 ft, 853 m
Durchbrochene Bewölkung at 10100 ft, 3078 m
Het Weer:moderate thunderstorm
Temperature:12°C, 54°F
Dew-point:7°C, 45°F
Atmospheric pressure:1011 hPa, 758.3 mmHg, 29.85 inHg, 0.998 atm
Relative humidity:71.4 %
METAR:EFKU 121520Z AUTO 25011KT 190V300 9999 TS SCT028CB BKN101 12/07 Q1011

Snelkoppelingen

Actuele weersinformatie van de hele wereld. Voeg locaties toe met het plus (+) symbool. Deze snelkoppelingen kunnen worden toegevoegd aan Google.

Lid van de Technetium groep

website free tracking
StatCounter NetStat W3C Validator

06-12-2019 09:43:33
astro.technetium.be money.technetium.be phote.technetium.be tafeltennistafel.technetium.be www.ligfiets.net